createdAt,value
2023-12-05T00:00:16.632Z,108.00
2023-12-05T00:02:45.802Z,108.10
2023-12-05T00:05:14.291Z,73.60
2023-12-05T00:07:44.515Z,49.70
2023-12-05T00:10:13.036Z,34.80
2023-12-05T00:12:41.654Z,23.80
2023-12-05T00:15:10.328Z,29.20
2023-12-05T00:17:38.503Z,21.80
2023-12-05T00:20:07.673Z,18.30
2023-12-05T00:22:37.714Z,20.30
2023-12-05T00:25:06.479Z,15.60
2023-12-05T00:27:35.449Z,16.80
2023-12-05T00:30:04.665Z,20.00
2023-12-05T00:32:33.151Z,16.50
2023-12-05T00:35:01.451Z,17.60
2023-12-05T00:37:30.013Z,17.90
2023-12-05T00:39:58.224Z,19.20
2023-12-05T00:42:26.715Z,22.60
2023-12-05T00:44:54.939Z,20.00
2023-12-05T00:47:23.230Z,25.90
2023-12-05T00:49:51.424Z,18.70
2023-12-05T00:52:19.865Z,19.20
2023-12-05T00:54:48.093Z,21.20
2023-12-05T00:57:16.281Z,18.70
2023-12-05T00:59:44.572Z,19.90
2023-12-05T01:02:12.862Z,21.60
2023-12-05T01:04:41.238Z,20.00
2023-12-05T01:07:13.945Z,23.40
2023-12-05T01:09:42.222Z,21.90
2023-12-05T01:12:12.003Z,22.00
2023-12-05T01:14:40.380Z,20.30
2023-12-05T01:17:08.909Z,19.80
2023-12-05T01:19:39.107Z,23.30
2023-12-05T01:22:07.610Z,25.60
2023-12-05T01:24:35.945Z,22.00
2023-12-05T01:27:05.086Z,23.40
2023-12-05T01:29:33.537Z,23.30
2023-12-05T01:32:01.693Z,23.90
2023-12-05T01:34:29.982Z,20.60
2023-12-05T01:36:58.324Z,22.80
2023-12-05T01:39:26.603Z,26.30
2023-12-05T01:41:55.088Z,21.10
2023-12-05T01:44:24.013Z,23.80
2023-12-05T01:46:52.329Z,21.90
2023-12-05T01:49:28.753Z,23.70
2023-12-05T01:51:58.512Z,22.90
2023-12-05T01:54:28.952Z,27.40
2023-12-05T01:56:57.607Z,27.40
2023-12-05T01:59:26.025Z,36.00
2023-12-05T02:01:54.538Z,32.30
2023-12-05T02:04:23.157Z,41.40
2023-12-05T02:06:51.525Z,41.00
2023-12-05T02:09:20.895Z,38.70
2023-12-05T02:11:49.321Z,32.50
2023-12-05T02:14:17.701Z,29.60
2023-12-05T02:16:53.122Z,25.10
2023-12-05T02:20:08.415Z,31.00
2023-12-05T02:22:45.022Z,21.70
2023-12-05T02:25:44.494Z,22.00
2023-12-05T02:28:12.899Z,23.50
2023-12-05T02:30:41.269Z,20.40
2023-12-05T02:33:09.600Z,27.30
2023-12-05T02:35:38.577Z,25.90
2023-12-05T02:38:10.447Z,23.30
2023-12-05T02:40:53.736Z,20.10
2023-12-05T02:43:31.247Z,23.00
2023-12-05T02:46:08.653Z,21.20
2023-12-05T02:48:38.912Z,22.90
2023-12-05T02:51:07.530Z,24.30
2023-12-05T02:53:35.965Z,28.10
2023-12-05T02:56:04.979Z,21.40
2023-12-05T02:58:33.212Z,20.80
2023-12-05T03:01:03.265Z,27.00
2023-12-05T03:03:31.662Z,20.10
2023-12-05T03:06:00.093Z,23.60
2023-12-05T03:08:28.515Z,24.00
2023-12-05T03:11:03.398Z,24.80
2023-12-05T03:13:35.990Z,24.00
2023-12-05T03:16:04.883Z,29.50
2023-12-05T03:18:33.484Z,26.20
2023-12-05T03:21:01.710Z,26.30
2023-12-05T03:23:30.407Z,25.50
2023-12-05T03:25:58.791Z,26.90
2023-12-05T03:28:27.100Z,26.40
2023-12-05T03:30:55.422Z,27.70
2023-12-05T03:33:23.655Z,24.40
2023-12-05T03:35:51.973Z,29.20
2023-12-05T03:38:20.351Z,27.60
2023-12-05T03:40:48.656Z,30.00
2023-12-05T03:43:16.957Z,31.00
2023-12-05T03:45:45.317Z,39.80
2023-12-05T03:48:13.625Z,43.50
2023-12-05T03:50:42.128Z,26.80
2023-12-05T03:53:10.347Z,30.80
2023-12-05T03:55:38.633Z,26.10
2023-12-05T03:58:06.830Z,29.80
2023-12-05T04:00:35.096Z,26.60
2023-12-05T04:03:03.403Z,29.60
2023-12-05T04:05:31.914Z,26.70
2023-12-05T04:08:00.267Z,28.00
2023-12-05T04:10:28.433Z,30.50
2023-12-05T04:12:57.658Z,24.20
2023-12-05T04:15:26.024Z,31.80
2023-12-05T04:17:54.328Z,28.40
2023-12-05T04:20:23.113Z,29.40
2023-12-05T04:22:51.471Z,35.50
2023-12-05T04:25:19.934Z,30.30
2023-12-05T04:27:48.284Z,34.20
2023-12-05T04:30:17.197Z,29.00
2023-12-05T04:32:46.249Z,31.80
2023-12-05T04:35:16.530Z,32.70
2023-12-05T04:37:44.842Z,34.90
2023-12-05T04:40:13.509Z,40.80
2023-12-05T04:42:41.753Z,34.90
2023-12-05T04:45:10.257Z,37.70
2023-12-05T04:47:38.526Z,37.80
2023-12-05T04:50:07.375Z,32.90
2023-12-05T04:52:35.694Z,40.70
2023-12-05T04:55:04.781Z,32.80
2023-12-05T04:57:32.965Z,35.30
2023-12-05T05:00:01.465Z,37.40
2023-12-05T05:02:29.684Z,28.00
2023-12-05T05:04:58.086Z,33.20
2023-12-05T05:07:26.461Z,30.20
2023-12-05T05:09:54.762Z,31.00
2023-12-05T05:12:24.019Z,29.60
2023-12-05T05:14:52.304Z,30.30
2023-12-05T05:17:20.612Z,39.20
2023-12-05T05:19:49.328Z,33.60
2023-12-05T05:22:17.956Z,37.20
2023-12-05T05:24:46.187Z,31.90
2023-12-05T05:27:15.397Z,30.20
2023-12-05T05:29:43.631Z,34.50
2023-12-05T05:32:12.041Z,38.10
2023-12-05T05:34:40.465Z,32.80
2023-12-05T05:37:08.724Z,36.10
2023-12-05T05:39:37.130Z,30.60
2023-12-05T05:42:05.882Z,32.80
2023-12-05T05:44:34.656Z,33.20
2023-12-05T05:47:02.916Z,27.60
2023-12-05T05:49:31.379Z,36.00
2023-12-05T05:51:59.924Z,40.70
2023-12-05T05:54:28.233Z,38.70
2023-12-05T05:56:56.569Z,30.70
2023-12-05T05:59:24.787Z,33.80
2023-12-05T06:01:53.122Z,34.30
2023-12-05T06:04:21.785Z,35.50
2023-12-05T06:06:50.555Z,33.80
2023-12-05T06:09:18.817Z,30.70
2023-12-05T06:11:47.467Z,36.50
2023-12-05T06:14:15.953Z,30.40
2023-12-05T06:16:44.404Z,35.30
2023-12-05T06:19:12.986Z,27.30
2023-12-05T06:21:41.504Z,33.50
2023-12-05T06:24:11.255Z,36.90
2023-12-05T06:26:39.965Z,33.50
2023-12-05T06:29:08.294Z,33.60
2023-12-05T06:31:37.266Z,29.50
2023-12-05T06:34:05.568Z,32.40
2023-12-05T06:36:34.123Z,32.90
2023-12-05T06:39:02.693Z,29.80
2023-12-05T06:41:30.897Z,28.70
2023-12-05T06:43:59.225Z,36.10
2023-12-05T06:46:27.774Z,36.60
2023-12-05T06:48:56.270Z,32.80
2023-12-05T06:51:24.638Z,37.50
2023-12-05T06:53:52.911Z,32.40
2023-12-05T06:56:21.826Z,33.00
2023-12-05T06:58:50.326Z,34.40
2023-12-05T07:01:19.517Z,37.90
2023-12-05T07:03:53.684Z,38.60
2023-12-05T07:06:25.751Z,36.70
2023-12-05T07:08:54.346Z,35.10
2023-12-05T07:11:22.840Z,41.30
2023-12-05T07:13:51.117Z,36.60
2023-12-05T07:16:19.363Z,39.60
2023-12-05T07:18:47.989Z,39.70
2023-12-05T07:21:16.520Z,35.90
2023-12-05T07:23:52.206Z,33.60
2023-12-05T07:26:24.328Z,30.50
2023-12-05T07:28:52.649Z,83.20
2023-12-05T07:31:21.758Z,39.00
2023-12-05T07:33:50.474Z,36.40
2023-12-05T07:36:19.096Z,30.30
2023-12-05T07:38:47.553Z,25.50
2023-12-05T07:41:22.669Z,27.40
2023-12-05T07:43:51.029Z,25.80
2023-12-05T07:46:19.752Z,22.50
2023-12-05T07:48:48.995Z,23.30
2023-12-05T07:51:19.596Z,26.50
2023-12-05T07:53:50.232Z,22.00
2023-12-05T07:56:19.331Z,21.10
2023-12-05T07:58:47.650Z,19.10
2023-12-05T08:01:15.903Z,17.30
2023-12-05T08:03:44.493Z,20.10
2023-12-05T08:06:13.524Z,17.30
2023-12-05T08:08:41.935Z,21.30
2023-12-05T08:11:13.005Z,18.00
2023-12-05T08:13:42.310Z,18.40
2023-12-05T08:16:11.095Z,17.00
2023-12-05T08:18:39.594Z,15.80
2023-12-05T08:21:08.375Z,19.50
2023-12-05T08:23:36.764Z,16.20
2023-12-05T08:26:05.985Z,16.60
2023-12-05T08:28:35.789Z,11.90
2023-12-05T08:31:04.645Z,15.30
2023-12-05T08:33:33.205Z,14.90
2023-12-05T08:36:02.840Z,17.80
2023-12-05T08:38:31.252Z,15.70
2023-12-05T08:40:59.599Z,15.10
2023-12-05T08:43:28.097Z,18.20
2023-12-05T08:45:56.289Z,16.30
2023-12-05T08:48:24.813Z,15.60
2023-12-05T08:50:53.378Z,17.10
2023-12-05T08:53:22.143Z,18.00
2023-12-05T08:55:50.684Z,20.80
2023-12-05T08:58:19.010Z,12.80
2023-12-05T09:00:47.469Z,14.80
2023-12-05T09:03:15.877Z,15.60
2023-12-05T09:05:44.265Z,11.90
2023-12-05T09:08:12.804Z,13.00
2023-12-05T09:10:41.125Z,14.00
2023-12-05T09:13:09.635Z,16.50
2023-12-05T09:15:38.983Z,13.60
2023-12-05T09:18:07.343Z,18.60
2023-12-05T09:20:35.564Z,17.40
2023-12-05T09:23:04.100Z,21.20
2023-12-05T09:25:32.414Z,18.20
2023-12-05T09:28:00.942Z,19.70
2023-12-05T09:30:29.813Z,14.50
2023-12-05T09:32:58.368Z,15.10
2023-12-05T09:35:27.226Z,15.00
2023-12-05T09:37:55.524Z,13.60
2023-12-05T09:40:24.176Z,16.50
2023-12-05T09:42:53.624Z,14.20
2023-12-05T09:45:22.565Z,19.20
2023-12-05T09:47:51.825Z,18.30
2023-12-05T09:50:20.816Z,15.80
2023-12-05T09:52:49.442Z,15.20
2023-12-05T09:55:18.329Z,13.10
2023-12-05T09:57:47.267Z,11.80
2023-12-05T10:00:16.017Z,11.90
2023-12-05T10:02:47.556Z,13.70
2023-12-05T10:05:17.494Z,11.30
2023-12-05T10:07:47.750Z,14.40
2023-12-05T10:10:20.135Z,15.20
2023-12-05T10:12:49.670Z,17.10
2023-12-05T10:15:18.264Z,13.80
2023-12-05T10:17:48.494Z,20.10
2023-12-05T10:20:17.131Z,18.70
2023-12-05T10:22:45.720Z,14.30
2023-12-05T10:25:16.416Z,19.30
2023-12-05T10:27:44.707Z,16.70
2023-12-05T10:30:15.649Z,16.20
2023-12-05T10:32:46.096Z,15.30
2023-12-05T10:35:14.841Z,19.00
2023-12-05T10:37:43.860Z,14.70
2023-12-05T10:40:13.046Z,22.10
2023-12-05T10:42:41.458Z,16.30
2023-12-05T10:45:10.863Z,15.40
2023-12-05T10:47:39.171Z,17.10
2023-12-05T10:50:08.067Z,14.80
2023-12-05T10:52:36.659Z,12.00
2023-12-05T10:55:05.563Z,12.60
2023-12-05T10:57:37.771Z,11.70
2023-12-05T11:00:07.740Z,13.80
2023-12-05T11:02:37.703Z,16.70
2023-12-05T11:05:06.781Z,12.80
2023-12-05T11:07:35.075Z,17.10
2023-12-05T11:10:04.528Z,14.20
2023-12-05T11:12:34.220Z,12.70
2023-12-05T11:15:02.553Z,17.40
2023-12-05T11:17:40.071Z,13.00
2023-12-05T11:20:31.647Z,14.20
2023-12-05T11:23:07.520Z,11.80
2023-12-05T11:26:03.097Z,13.60
2023-12-05T11:28:48.883Z,17.60
2023-12-05T11:31:27.153Z,17.40
2023-12-05T11:34:04.198Z,17.50
2023-12-05T11:37:10.625Z,18.90
2023-12-05T11:39:39.214Z,17.40
2023-12-05T11:42:11.708Z,15.90
2023-12-05T11:44:40.409Z,11.70
2023-12-05T11:47:15.049Z,13.30
2023-12-05T11:49:56.625Z,16.00
2023-12-05T11:52:39.119Z,12.50
2023-12-05T11:57:36.954Z,14.20
2023-12-05T12:00:06.091Z,12.90
2023-12-05T12:02:43.736Z,14.50
2023-12-05T12:05:13.841Z,13.80
2023-12-05T12:07:58.266Z,13.50
2023-12-05T12:10:29.848Z,10.30
2023-12-05T12:12:59.946Z,15.20
2023-12-05T12:15:37.991Z,13.90
2023-12-05T12:18:06.648Z,11.30
2023-12-05T12:20:35.151Z,11.00
2023-12-05T12:23:03.758Z,13.60
2023-12-05T12:25:32.471Z,10.70
2023-12-05T12:28:01.639Z,13.00
2023-12-05T12:30:35.689Z,15.20
2023-12-05T12:33:07.509Z,9.80
2023-12-05T12:35:36.423Z,9.40
2023-12-05T12:38:04.884Z,12.50
2023-12-05T12:40:35.305Z,14.40
2023-12-05T12:43:04.647Z,11.00
2023-12-05T12:45:33.139Z,10.40
2023-12-05T12:48:05.120Z,12.20
2023-12-05T12:50:33.596Z,11.40
2023-12-05T12:53:02.143Z,11.40
2023-12-05T12:55:30.466Z,13.10
2023-12-05T12:58:02.952Z,12.20
2023-12-05T13:00:38.605Z,13.20
2023-12-05T13:03:07.710Z,12.90
2023-12-05T13:05:37.640Z,12.10
2023-12-05T13:08:06.428Z,13.70
2023-12-05T13:10:34.905Z,18.80
2023-12-05T13:13:04.026Z,16.10
2023-12-05T13:15:32.834Z,14.60
2023-12-05T13:18:05.783Z,12.40
2023-12-05T13:20:48.754Z,10.90
2023-12-05T13:23:18.604Z,13.40
2023-12-05T13:25:46.907Z,26.80
2023-12-05T13:28:15.168Z,15.20
2023-12-05T13:30:46.296Z,126.60
2023-12-05T13:33:16.703Z,100.30
2023-12-05T13:35:45.398Z,40.60
2023-12-05T13:38:13.935Z,19.50
2023-12-05T13:40:42.623Z,17.70
2023-12-05T13:43:10.956Z,13.80
2023-12-05T13:45:39.283Z,19.80
2023-12-05T13:48:07.956Z,14.90
2023-12-05T13:50:36.372Z,19.50
2023-12-05T13:53:04.919Z,15.10
2023-12-05T13:55:33.308Z,15.70
2023-12-05T13:58:01.644Z,14.00
2023-12-05T14:00:30.086Z,14.00
2023-12-05T14:02:58.690Z,21.00
2023-12-05T14:05:27.471Z,17.10
2023-12-05T14:07:56.151Z,13.10
2023-12-05T14:10:24.554Z,18.00
2023-12-05T14:12:53.664Z,14.10
2023-12-05T14:15:25.080Z,15.80
2023-12-05T14:17:54.753Z,30.80
2023-12-05T14:20:23.828Z,30.20
2023-12-05T14:22:52.168Z,38.00
2023-12-05T14:25:20.430Z,37.70
2023-12-05T14:27:48.849Z,47.10
2023-12-05T14:30:17.692Z,37.70
2023-12-05T14:32:46.026Z,44.20
2023-12-05T14:35:14.568Z,47.30
2023-12-05T14:37:42.876Z,44.70
2023-12-05T14:40:11.799Z,47.20
2023-12-05T14:42:40.156Z,46.30
2023-12-05T14:45:09.884Z,34.00
2023-12-05T14:47:38.574Z,35.10
2023-12-05T14:50:07.126Z,33.30
2023-12-05T14:52:36.485Z,31.70
2023-12-05T14:55:05.236Z,38.00
2023-12-05T14:57:33.678Z,36.00
2023-12-05T15:00:02.614Z,55.30
2023-12-05T15:02:31.198Z,65.30
2023-12-05T15:04:59.766Z,54.10
2023-12-05T15:07:28.386Z,68.80
2023-12-05T15:09:56.767Z,73.40
2023-12-05T15:12:26.081Z,62.80
2023-12-05T15:14:58.080Z,62.90
2023-12-05T15:17:26.413Z,67.80
2023-12-05T15:20:18.587Z,70.00
2023-12-05T15:22:44.186Z,67.80
2023-12-05T15:25:12.774Z,83.40
2023-12-05T15:27:41.291Z,88.90
2023-12-05T15:30:10.504Z,84.60
2023-12-05T15:32:39.386Z,69.80
2023-12-05T15:35:08.200Z,64.40
2023-12-05T15:37:36.905Z,56.70
2023-12-05T15:40:08.172Z,54.70
2023-12-05T15:42:36.475Z,70.60
2023-12-05T15:45:06.454Z,78.00
2023-12-05T15:47:35.702Z,73.20
2023-12-05T15:50:06.257Z,84.60
2023-12-05T15:52:37.365Z,72.60
2023-12-05T15:55:07.122Z,69.60
2023-12-05T15:57:36.292Z,70.60
2023-12-05T16:00:06.388Z,72.30
2023-12-05T16:02:42.983Z,59.20
2023-12-05T16:05:12.950Z,48.90
2023-12-05T16:07:41.905Z,62.10
2023-12-05T16:10:11.189Z,55.30
2023-12-05T16:12:39.741Z,78.50
2023-12-05T16:15:08.763Z,83.90
2023-12-05T16:17:37.406Z,66.00
2023-12-05T16:20:06.948Z,66.30
2023-12-05T16:22:35.403Z,68.20
2023-12-05T16:25:04.439Z,55.90
2023-12-05T16:27:36.249Z,73.20
2023-12-05T16:30:07.151Z,94.30
2023-12-05T16:32:36.109Z,122.10
2023-12-05T16:35:05.396Z,89.40
2023-12-05T16:37:33.839Z,99.00
2023-12-05T16:40:02.523Z,108.60
2023-12-05T16:42:31.080Z,116.70
2023-12-05T16:44:59.892Z,155.00
2023-12-05T16:47:28.503Z,173.10
2023-12-05T16:49:57.063Z,198.30
2023-12-05T16:52:25.665Z,182.10
2023-12-05T16:54:54.038Z,145.00
2023-12-05T16:57:25.412Z,136.60
2023-12-05T16:59:55.526Z,117.10
2023-12-05T17:02:23.894Z,114.70
2023-12-05T17:04:52.672Z,104.90
2023-12-05T17:07:21.526Z,87.90
2023-12-05T17:09:50.255Z,69.00
2023-12-05T17:12:18.869Z,63.30
2023-12-05T17:14:47.732Z,52.20
2023-12-05T17:17:16.500Z,52.50
2023-12-05T17:19:45.288Z,41.60
2023-12-05T17:22:13.773Z,47.00
2023-12-05T17:24:44.970Z,44.10
2023-12-05T17:27:14.567Z,45.20
2023-12-05T17:29:43.603Z,37.80
2023-12-05T17:32:13.406Z,36.30
2023-12-05T17:34:42.823Z,45.20
2023-12-05T17:37:11.805Z,44.20
2023-12-05T17:39:40.874Z,56.40
2023-12-05T17:42:09.369Z,55.30
2023-12-05T17:44:37.589Z,65.80
2023-12-05T17:47:05.946Z,59.30
2023-12-05T17:49:34.494Z,56.20
2023-12-05T17:52:03.399Z,60.10
2023-12-05T17:54:31.882Z,81.70
2023-12-05T17:57:00.618Z,79.20
2023-12-05T17:59:29.246Z,90.90
2023-12-05T18:01:58.690Z,67.70
2023-12-05T18:04:27.276Z,77.20
2023-12-05T18:07:49.727Z,98.10
2023-12-05T18:09:44.553Z,132.70
2023-12-05T18:12:12.890Z,153.40
2023-12-05T18:14:41.184Z,150.30
2023-12-05T18:17:09.617Z,132.40
2023-12-05T18:19:38.704Z,124.10
2023-12-05T18:22:07.339Z,119.30
2023-12-05T18:24:35.741Z,125.60
2023-12-05T18:27:04.701Z,140.30
2023-12-05T18:29:33.423Z,130.70
2023-12-05T18:32:02.010Z,126.40
2023-12-05T18:34:30.699Z,96.80
2023-12-05T18:36:59.315Z,80.70
2023-12-05T18:39:30.527Z,74.50
2023-12-05T18:41:59.397Z,65.50
2023-12-05T18:44:30.388Z,65.30
2023-12-05T18:46:58.874Z,49.40
2023-12-05T18:49:27.472Z,46.50
2023-12-05T18:51:56.732Z,55.90
2023-12-05T18:54:25.173Z,49.40
2023-12-05T18:56:53.463Z,52.40
2023-12-05T18:59:21.952Z,53.50
2023-12-05T19:01:51.097Z,55.60
2023-12-05T19:04:19.620Z,57.10
2023-12-05T19:06:49.725Z,63.90
2023-12-05T19:09:18.984Z,61.10
2023-12-05T19:11:47.360Z,56.60
2023-12-05T19:14:16.759Z,47.30
2023-12-05T19:16:45.403Z,52.10
2023-12-05T19:19:14.068Z,52.90
2023-12-05T19:21:47.288Z,47.90
2023-12-05T19:24:15.996Z,53.30
2023-12-05T19:26:44.734Z,42.00
2023-12-05T19:29:13.477Z,43.60
2023-12-05T19:31:42.240Z,38.20
2023-12-05T19:34:10.761Z,45.30
2023-12-05T19:36:39.360Z,62.60
2023-12-05T19:39:09.233Z,62.10
2023-12-05T19:41:37.806Z,64.00
2023-12-05T19:44:06.262Z,73.30
2023-12-05T19:46:34.743Z,58.00
2023-12-05T19:49:04.611Z,55.40
2023-12-05T19:51:33.540Z,49.20
2023-12-05T19:54:02.290Z,49.10
2023-12-05T19:56:30.856Z,47.40
2023-12-05T19:58:59.222Z,51.20
2023-12-05T20:01:27.882Z,48.30
2023-12-05T20:03:56.785Z,46.20
2023-12-05T20:06:25.364Z,46.30
2023-12-05T20:08:53.778Z,49.30
2023-12-05T20:11:22.589Z,55.20
2023-12-05T20:13:51.649Z,48.30
2023-12-05T20:16:19.939Z,55.00
2023-12-05T20:18:50.707Z,57.60
2023-12-05T20:21:19.128Z,56.40
2023-12-05T20:23:48.406Z,58.70
2023-12-05T20:26:16.607Z,51.50
2023-12-05T20:28:45.284Z,43.50
2023-12-05T20:31:14.015Z,58.00
2023-12-05T20:33:47.564Z,52.40
2023-12-05T20:36:16.698Z,48.90
2023-12-05T20:38:45.222Z,43.00
2023-12-05T20:41:13.522Z,50.70
2023-12-05T20:43:42.264Z,49.80
2023-12-05T20:46:10.514Z,47.10
2023-12-05T20:48:38.811Z,56.40
2023-12-05T20:51:07.295Z,61.60
2023-12-05T20:53:35.845Z,56.10
2023-12-05T20:56:04.941Z,63.10
2023-12-05T20:58:33.631Z,61.30
2023-12-05T21:01:03.111Z,66.70
2023-12-05T21:03:31.781Z,50.20
2023-12-05T21:06:00.058Z,55.60
2023-12-05T21:09:08.910Z,64.90
2023-12-05T21:11:17.968Z,60.10
2023-12-05T21:13:47.659Z,55.20
2023-12-05T21:16:16.460Z,52.40
2023-12-05T21:18:45.198Z,56.30
2023-12-05T21:21:13.876Z,50.90
2023-12-05T21:23:43.159Z,59.50
2023-12-05T21:26:11.523Z,52.40
2023-12-05T21:28:39.724Z,57.20
2023-12-05T21:31:08.175Z,51.30
2023-12-05T21:33:36.637Z,53.70
2023-12-05T21:36:05.587Z,50.30
2023-12-05T21:38:34.031Z,47.70
2023-12-05T21:41:02.448Z,49.70
2023-12-05T21:43:30.925Z,42.30
2023-12-05T21:45:59.354Z,49.30
2023-12-05T21:48:28.227Z,51.30
2023-12-05T21:50:56.605Z,48.20
2023-12-05T21:53:25.110Z,55.00
2023-12-05T21:55:53.377Z,46.40
2023-12-05T21:58:21.938Z,56.10
2023-12-05T22:00:50.488Z,40.90
2023-12-05T22:03:19.622Z,41.60
2023-12-05T22:05:47.954Z,45.90
2023-12-05T22:08:16.276Z,39.60
2023-12-05T22:10:44.498Z,38.80
2023-12-05T22:13:12.880Z,38.80
2023-12-05T22:15:41.393Z,36.30
2023-12-05T22:18:09.799Z,41.10
2023-12-05T22:20:38.854Z,30.90
2023-12-05T22:23:07.066Z,34.40
2023-12-05T22:25:35.577Z,40.20
2023-12-05T22:28:04.277Z,33.20
2023-12-05T22:30:32.989Z,42.10
2023-12-05T22:33:01.213Z,37.60
2023-12-05T22:35:29.928Z,40.10
2023-12-05T22:37:59.337Z,43.20
2023-12-05T22:40:28.584Z,39.00
2023-12-05T22:42:56.805Z,44.40
2023-12-05T22:45:25.219Z,40.00
2023-12-05T22:47:53.553Z,53.30
2023-12-05T22:50:21.885Z,40.80
2023-12-05T22:52:53.611Z,40.90
2023-12-05T22:55:22.084Z,29.60
2023-12-05T22:57:50.715Z,28.60
2023-12-05T23:00:27.065Z,29.00
2023-12-05T23:02:57.425Z,31.80
2023-12-05T23:05:26.228Z,34.20
2023-12-05T23:07:56.078Z,33.70
2023-12-05T23:10:24.785Z,29.80
2023-12-05T23:12:53.194Z,26.50
2023-12-05T23:15:21.677Z,35.00
2023-12-05T23:17:49.877Z,25.90
2023-12-05T23:20:18.834Z,28.20
2023-12-05T23:22:47.794Z,28.70
2023-12-05T23:25:17.097Z,37.20
2023-12-05T23:27:45.413Z,30.00
2023-12-05T23:30:14.309Z,30.10
2023-12-05T23:32:42.561Z,28.60
2023-12-05T23:35:10.802Z,29.00
2023-12-05T23:37:39.287Z,31.60
2023-12-05T23:40:08.067Z,25.10
2023-12-05T23:42:37.363Z,28.30
2023-12-05T23:45:06.088Z,23.60
2023-12-05T23:47:34.302Z,28.80
2023-12-05T23:50:02.513Z,29.60
2023-12-05T23:52:30.720Z,30.50
2023-12-05T23:54:59.129Z,29.20
2023-12-05T23:57:27.330Z,25.40
2023-12-05T23:59:56.158Z,24.60
